Aérodrome :
LOGIN :

S'inscrire | Disclaimer

   EN    FR    IT 

 










Légende :    VFR   VFR Marginal   IFR   IFR Intensif   IFR Très Intensif
Visi : 
Plafond : 
>= 8 km
>= 3000ft
5 à 8 km
1000 à 3000 ft
1500m à 5 km
500 à 1000 ft
800 à 1500m
200 à 500 ft
< 800m
< 200 ft
Symboles :   Orages  Brouillard  Fortes neiges  Fortes précipitations  Vent > 20 kt
SIGMETs :   Divers  Orages  Givrage  Turbulence  Onde Orograph.  Cendres Volcan.







- Altitude de l'aérodrome : 412 ft
- Code IATA : ORE
- Voir les cartes d'approche


LFOJ - Orleans

DERNIER METAR :
  • 221830Z AUTO 35005KT CAVOK 14/09 Q1022

METARs EXPIRÉS :
  • 221800Z AUTO 35005KT CAVOK 15/09 Q1022
  • 221730Z AUTO 35005KT CAVOK 16/09 Q1022
  • 221700Z AUTO 35006KT CAVOK 18/10 Q1022
  • 221630Z AUTO 33003KT CAVOK 19/11 Q1021
  • 221600Z AUTO 31006KT 9999 SCT038 19/11 Q1021

TAF TAF LFOJ
Valide du 22 à 15h jusqu'au 23 à 15h UTC


221400Z 2215/2315 36008KT 9999 SCT045
PROB40
TEMPO 2302/2307 4000 BR
PROB30
TEMPO 2304/2307 0900 BCFG
Pas de NOTAMs connus pour ce terrain.



MET'MAP, la Météo Aéronautique d'un coup d'oeil ! - Copyright ORBIFLY Décembre 2007 - Disclaimer

ORBIFLY MET'MAP TEAM :

Programmation & Développement : Alexandra Zaïnal
Conception & Développement : Baudouin d'Aumeries
Co-Programmation & Développement : Marc-Olivier Méhu
Soutien technique & logistique : Manuel Goepfert

Contact : metmap@orbifly.com




SOURCES & CREDITS :

   NOAA